Time;durP1;ratioP1;P1;durP2;ratioP2;P2;SDS_P1;SDS_P2;PMS_P1;PMS_P2;Temp;Humidity;BMP_temperature;BMP_pressure;BME280_temperature;BME280_humidity;BME280_pressure;Samples;Min_cycle;Max_cycle;Signal;HPM_P1;HPM_P2
2022/05/21 00:00:15;;;;;;;15.48;7.32;;;15.50;99.90;;;;;;5031947;28;20552;-82
2022/05/21 00:02:41;;;;;;;11.65;7.03;;;15.50;99.90;;;;;;5031960;28;20033;-81
2022/05/21 00:05:08;;;;;;;14.82;7.35;;;15.50;99.90;;;;;;5030714;28;20044;-81
2022/05/21 00:07:34;;;;;;;17.75;7.53;;;15.50;99.90;;;;;;5014142;28;20029;-81
2022/05/21 00:09:59;;;;;;;11.18;6.97;;;15.50;99.90;;;;;;5031655;28;20045;-81
2022/05/21 00:12:25;;;;;;;11.80;6.65;;;15.50;99.90;;;;;;5030497;28;20041;-82
2022/05/21 00:14:55;;;;;;;9.25;6.60;;;15.40;99.90;;;;;;5031789;28;20030;-81
2022/05/21 00:17:21;;;;;;;14.90;7.18;;;15.40;99.90;;;;;;5031442;28;20038;-82
2022/05/21 00:19:46;;;;;;;12.45;7.70;;;15.40;99.90;;;;;;5031614;28;20034;-82
2022/05/21 00:22:12;;;;;;;9.07;6.90;;;15.40;99.90;;;;;;5031802;28;20029;-81
2022/05/21 00:24:38;;;;;;;12.95;7.63;;;15.40;99.90;;;;;;5031746;28;20120;-82
2022/05/21 00:27:05;;;;;;;11.05;7.68;;;15.40;99.90;;;;;;5031097;28;20485;-82
2022/05/21 00:29:31;;;;;;;13.00;7.60;;;15.40;99.90;;;;;;5030010;28;20029;-81
2022/05/21 00:31:57;;;;;;;11.82;8.40;;;15.30;99.90;;;;;;5031517;28;20439;-82
2022/05/21 00:34:22;;;;;;;12.68;9.23;;;15.30;99.90;;;;;;5030324;28;20559;-81
2022/05/21 00:36:49;;;;;;;15.80;9.13;;;15.40;99.90;;;;;;5031332;28;20437;-81
2022/05/21 00:39:14;;;;;;;13.13;8.10;;;15.30;99.90;;;;;;5031266;28;20029;-82
2022/05/21 00:41:40;;;;;;;16.08;8.90;;;15.30;99.90;;;;;;5031201;28;20402;-84
2022/05/21 00:44:07;;;;;;;15.57;8.13;;;15.30;99.90;;;;;;5030041;28;20030;-84
2022/05/21 00:46:35;;;;;;;13.93;8.23;;;15.30;99.90;;;;;;5031152;28;20057;-84
2022/05/21 00:49:15;;;;;;;11.82;8.55;;;15.30;99.90;;;;;;5029750;28;20112;-81
2022/05/21 00:51:55;;;;;;;14.35;8.85;;;15.30;99.90;;;;;;5029888;28;20037;-82
2022/05/21 00:54:34;;;;;;;10.40;7.72;;;15.20;99.90;;;;;;5031066;28;20485;-82
2022/05/21 00:57:06;;;;;;;12.13;8.10;;;15.30;99.90;;;;;;5029701;28;20032;-82
2022/05/21 00:59:47;;;;;;;13.98;7.38;;;15.20;99.90;;;;;;5030939;28;20437;-82
2022/05/21 01:02:23;;;;;;;11.63;7.65;;;15.20;99.90;;;;;;5031465;28;20462;-82
2022/05/21 01:04:49;;;;;;;14.02;7.97;;;15.20;99.90;;;;;;5031091;28;20042;-82
2022/05/21 01:07:16;;;;;;;11.18;6.38;;;15.10;99.90;;;;;;5030933;28;20041;-82
2022/05/21 01:09:50;;;;;;;11.85;5.97;;;15.10;99.90;;;;;;5030675;28;20037;-82
2022/05/21 01:12:16;;;;;;;12.90;6.05;;;15.10;99.90;;;;;;5031061;28;20030;-82
2022/05/21 01:14:42;;;;;;;10.57;6.15;;;15.20;99.90;;;;;;5030835;28;20548;-82
2022/05/21 01:17:08;;;;;;;10.23;5.63;;;15.10;99.90;;;;;;5030736;28;20378;-83
2022/05/21 01:19:58;;;;;;;11.30;5.55;;;15.10;99.90;;;;;;5030675;28;20025;-82
2022/05/21 01:22:26;;;;;;;8.60;4.90;;;15.10;99.90;;;;;;5030745;28;20030;-83
2022/05/21 01:24:51;;;;;;;8.73;5.00;;;15.10;99.90;;;;;;5029566;28;20087;-82
2022/05/21 01:27:19;;;;;;;10.18;4.90;;;15.10;99.90;;;;;;5029327;28;20061;-82
2022/05/21 01:29:49;;;;;;;9.32;5.30;;;15.10;99.90;;;;;;5030608;28;20442;-83
2022/05/21 01:32:17;;;;;;;10.55;5.30;;;15.00;99.90;;;;;;5029258;28;20064;-83
2022/05/21 01:34:44;;;;;;;7.82;4.80;;;15.00;99.90;;;;;;5029684;28;20025;-83
2022/05/21 01:37:10;;;;;;;8.30;4.45;;;15.00;99.90;;;;;;5030930;28;20389;-83
2022/05/21 01:39:36;;;;;;;7.60;4.32;;;15.10;99.90;;;;;;5034548;28;20068;-83
2022/05/21 01:42:02;;;;;;;10.02;4.80;;;15.00;99.90;;;;;;5034558;28;20560;-83
2022/05/21 01:44:40;;;;;;;5.53;3.50;;;15.10;99.90;;;;;;5034613;28;20124;-83
2022/05/21 01:47:06;;;;;;;5.95;4.13;;;15.10;99.90;;;;;;5033129;28;20040;-83
2022/05/21 01:49:32;;;;;;;7.03;3.72;;;15.10;99.90;;;;;;5034597;28;20025;-83
2022/05/21 01:51:58;;;;;;;8.20;4.00;;;15.10;99.90;;;;;;5033020;28;20072;-83
2022/05/21 01:54:24;;;;;;;6.80;3.50;;;15.10;99.90;;;;;;5034534;28;20423;-83
2022/05/21 01:56:50;;;;;;;8.18;3.88;;;15.10;99.90;;;;;;5034600;28;20504;-83
2022/05/21 01:59:16;;;;;;;8.70;3.70;;;15.10;99.90;;;;;;5034172;28;20021;-83
2022/05/21 02:01:41;;;;;;;8.35;3.22;;;15.10;99.90;;;;;;5034210;28;20424;-83
2022/05/21 02:04:07;;;;;;;5.65;3.13;;;15.00;99.90;;;;;;5034405;28;20105;-83
2022/05/21 02:06:33;;;;;;;7.07;3.15;;;15.10;99.90;;;;;;5034250;28;20489;-83
2022/05/21 02:08:59;;;;;;;6.53;3.05;;;15.00;99.90;;;;;;5033935;28;20052;-83
2022/05/21 02:11:25;;;;;;;5.40;2.80;;;15.00;99.90;;;;;;5033928;28;20037;-83
2022/05/21 02:13:51;;;;;;;7.95;3.08;;;15.00;99.90;;;;;;5033928;28;20032;-83
2022/05/21 02:16:16;;;;;;;5.65;2.70;;;15.00;99.90;;;;;;5033860;28;20095;-83
2022/05/21 02:18:42;;;;;;;5.85;2.97;;;15.00;99.90;;;;;;5033764;28;20034;-83
2022/05/21 02:21:08;;;;;;;6.70;2.63;;;15.00;99.90;;;;;;5033699;28;20033;-83
2022/05/21 02:23:34;;;;;;;8.73;2.80;;;15.00;99.90;;;;;;5033973;28;20033;-83
2022/05/21 02:26:00;;;;;;;7.13;2.90;;;15.00;99.90;;;;;;5033652;28;20033;-83
2022/05/21 02:28:27;;;;;;;7.07;2.60;;;15.00;99.90;;;;;;5033835;28;20029;-83
2022/05/21 02:30:53;;;;;;;5.93;2.70;;;15.00;99.90;;;;;;5033474;28;20025;-83
2022/05/21 02:33:18;;;;;;;5.90;2.40;;;15.00;99.90;;;;;;5033960;28;20037;-83
2022/05/21 02:35:44;;;;;;;8.38;2.85;;;14.90;99.90;;;;;;5032436;28;20025;-83
2022/05/21 02:40:55;;;;;;;5.93;2.30;;;15.00;99.90;;;;;;5033333;28;20386;-82
2022/05/21 02:43:21;;;;;;;4.88;2.30;;;15.00;99.90;;;;;;5032243;28;20033;-83
2022/05/21 02:45:47;;;;;;;6.97;2.70;;;15.00;99.90;;;;;;5033438;28;20035;-83
2022/05/21 02:48:13;;;;;;;5.00;2.22;;;15.00;99.90;;;;;;5033749;28;20381;-83
2022/05/21 02:50:39;;;;;;;7.72;2.83;;;14.90;99.90;;;;;;5033094;28;20029;-83
2022/05/21 02:53:08;;;;;;;9.60;2.80;;;15.00;99.90;;;;;;5033283;28;20440;-83
2022/05/21 02:55:34;;;;;;;7.90;2.70;;;15.00;99.90;;;;;;5033333;28;20026;-83
2022/05/21 02:58:00;;;;;;;6.45;2.50;;;15.00;99.90;;;;;;5032164;28;20032;-83
2022/05/21 03:00:29;;;;;;;8.82;3.08;;;15.10;99.90;;;;;;5033105;28;20363;-83
2022/05/21 03:02:55;;;;;;;11.32;2.92;;;15.00;99.90;;;;;;5034285;28;20132;-84
2022/05/21 03:05:21;;;;;;;10.77;3.53;;;15.00;99.90;;;;;;5033802;28;20496;-83
2022/05/21 03:07:50;;;;;;;10.70;3.50;;;15.00;99.90;;;;;;5032937;28;20071;-83
2022/05/21 03:10:22;;;;;;;7.13;3.17;;;15.00;99.90;;;;;;5033056;28;20628;-83
2022/05/21 03:12:51;;;;;;;11.43;3.03;;;15.00;99.90;;;;;;5033049;28;20033;-84
2022/05/21 03:15:19;;;;;;;5.22;2.90;;;15.00;99.90;;;;;;5032848;28;20037;-83
2022/05/21 03:17:46;;;;;;;11.70;3.22;;;14.90;99.90;;;;;;5032730;28;20029;-83
2022/05/21 03:20:13;;;;;;;8.25;3.00;;;14.90;99.90;;;;;;5031314;28;20025;-83
2022/05/21 03:22:41;;;;;;;9.23;3.75;;;14.90;99.90;;;;;;5032644;28;20474;-83
2022/05/21 03:25:08;;;;;;;8.20;3.35;;;14.80;99.90;;;;;;5031460;28;20045;-83
2022/05/21 03:27:34;;;;;;;9.07;3.20;;;14.80;99.90;;;;;;5032698;28;20029;-83
2022/05/21 03:30:01;;;;;;;9.52;2.78;;;14.80;99.90;;;;;;5031087;28;20026;-83
2022/05/21 03:32:27;;;;;;;8.82;3.63;;;14.80;99.90;;;;;;5031233;28;20127;-83
2022/05/21 03:34:53;;;;;;;8.98;4.20;;;14.80;99.90;;;;;;5032533;28;20481;-83
2022/05/21 03:37:18;;;;;;;9.20;4.10;;;14.80;99.90;;;;;;5032728;28;20083;-83
2022/05/21 03:39:44;;;;;;;13.27;4.40;;;14.80;99.90;;;;;;5032306;28;20374;-83
2022/05/21 03:42:10;;;;;;;12.00;4.90;;;14.90;99.90;;;;;;5032251;28;20480;-83
2022/05/21 03:44:36;;;;;;;8.70;4.28;;;14.80;99.90;;;;;;5032451;28;20029;-83
2022/05/21 03:47:02;;;;;;;12.30;5.57;;;14.90;99.90;;;;;;5032184;28;20030;-83
2022/05/21 03:49:28;;;;;;;12.10;4.90;;;14.80;99.90;;;;;;5030742;28;20037;-83
2022/05/21 03:51:54;;;;;;;13.18;5.10;;;14.90;99.90;;;;;;5032005;28;20041;-83
2022/05/21 03:54:21;;;;;;;13.13;5.00;;;14.80;99.90;;;;;;5032486;28;20385;-83
2022/05/21 03:56:47;;;;;;;12.65;4.95;;;14.80;99.90;;;;;;5030821;28;20030;-83
2022/05/21 03:59:13;;;;;;;13.13;5.35;;;14.80;99.90;;;;;;5030566;28;20045;-83
2022/05/21 04:01:41;;;;;;;11.93;4.82;;;14.80;99.90;;;;;;5030108;28;20037;-83
2022/05/21 04:04:07;;;;;;;11.15;4.80;;;14.80;99.90;;;;;;5030743;28;20056;-83
2022/05/21 04:06:33;;;;;;;17.58;7.45;;;14.80;99.90;;;;;;5013953;28;20033;-83
2022/05/21 04:08:59;;;;;;;15.15;6.10;;;14.80;99.90;;;;;;5030427;28;20037;-83
2022/05/21 04:11:25;;;;;;;15.35;5.78;;;14.80;99.90;;;;;;5030295;28;20036;-83
2022/05/21 04:13:50;;;;;;;12.82;5.20;;;14.80;99.90;;;;;;5031846;28;20493;-83
2022/05/21 04:16:16;;;;;;;14.88;5.68;;;14.70;99.90;;;;;;5030272;28;20038;-83
2022/05/21 04:18:42;;;;;;;13.27;5.45;;;14.70;99.90;;;;;;5030153;28;20017;-83
2022/05/21 04:21:08;;;;;;;15.60;5.80;;;14.70;99.90;;;;;;5030178;28;20032;-83
2022/05/21 04:23:34;;;;;;;17.20;6.00;;;14.70;99.90;;;;;;5031765;28;20092;-83
2022/05/21 04:25:59;;;;;;;11.20;5.30;;;14.70;99.90;;;;;;5031394;28;20033;-83
2022/05/21 04:28:25;;;;;;;12.25;5.20;;;14.80;99.90;;;;;;5031504;28;20095;-83
2022/05/21 04:30:51;;;;;;;17.40;6.50;;;14.80;99.90;;;;;;5029891;28;20034;-83
2022/05/21 04:33:16;;;;;;;17.35;6.03;;;14.70;99.90;;;;;;5031378;28;20084;-83
2022/05/21 04:38:27;;;;;;;13.80;5.43;;;14.70;99.90;;;;;;5031499;28;20644;-83
2022/05/21 04:40:52;;;;;;;12.88;5.13;;;14.70;99.90;;;;;;5030925;28;20114;-81
2022/05/21 04:43:18;;;;;;;13.48;5.40;;;14.70;99.90;;;;;;5029964;28;20048;-82
2022/05/21 04:45:44;;;;;;;15.50;5.10;;;14.80;99.90;;;;;;5031008;28;20029;-83
2022/05/21 04:48:10;;;;;;;14.90;5.32;;;14.70;99.90;;;;;;5031213;28;20590;-82
2022/05/21 04:50:38;;;;;;;16.98;5.43;;;14.80;99.90;;;;;;5031022;28;20033;-82
2022/05/21 04:53:04;;;;;;;15.25;5.10;;;14.80;99.90;;;;;;5013370;28;20030;-83
2022/05/21 04:55:30;;;;;;;12.13;5.40;;;14.80;99.90;;;;;;5031234;28;20516;-83
2022/05/21 04:57:56;;;;;;;13.68;5.25;;;14.80;99.90;;;;;;5030854;28;20026;-83
2022/05/21 05:00:22;;;;;;;14.43;5.25;;;14.80;99.90;;;;;;5030710;28;20462;-83
2022/05/21 05:02:48;;;;;;;15.48;4.72;;;14.90;99.90;;;;;;5029980;28;20041;-83
2022/05/21 05:05:15;;;;;;;13.52;5.20;;;14.90;99.90;;;;;;5030927;28;20030;-83
2022/05/21 05:07:41;;;;;;;13.13;4.70;;;14.90;99.90;;;;;;5030784;28;20036;-83
2022/05/21 05:10:08;;;;;;;12.73;4.72;;;14.90;99.90;;;;;;5030800;28;20061;-83
2022/05/21 05:12:33;;;;;;;11.32;4.85;;;14.90;99.90;;;;;;5029876;28;20029;-83
2022/05/21 05:15:00;;;;;;;13.55;4.82;;;14.90;99.90;;;;;;5030727;28;20025;-83
2022/05/21 05:17:28;;;;;;;11.57;4.95;;;15.00;99.90;;;;;;5030543;28;20473;-83
2022/05/21 05:19:54;;;;;;;15.68;5.90;;;14.90;99.90;;;;;;5030529;28;20072;-83
2022/05/21 05:22:23;;;;;;;16.83;4.97;;;14.90;99.90;;;;;;5030949;28;20374;-83
2022/05/21 05:24:49;;;;;;;17.17;5.13;;;14.90;99.90;;;;;;5029549;28;20061;-83
2022/05/21 05:27:17;;;;;;;13.20;5.47;;;15.00;99.90;;;;;;5029206;28;20029;-83
2022/05/21 05:29:42;;;;;;;16.38;5.88;;;14.90;99.90;;;;;;5030389;28;20030;-83
2022/05/21 05:32:09;;;;;;;13.25;5.97;;;14.90;99.90;;;;;;5029210;28;20453;-83
2022/05/21 05:34:35;;;;;;;14.25;5.82;;;14.90;99.90;;;;;;5029389;28;20096;-83
2022/05/21 05:37:01;;;;;;;12.30;5.50;;;14.90;99.90;;;;;;5030503;28;20021;-83
2022/05/21 05:39:28;;;;;;;17.38;5.88;;;14.90;99.90;;;;;;5029273;28;20021;-83
2022/05/21 05:41:54;;;;;;;14.55;5.95;;;14.90;99.90;;;;;;5030248;28;20079;-83
2022/05/21 05:44:20;;;;;;;14.45;6.10;;;14.90;99.90;;;;;;5030561;28;20033;-83
2022/05/21 05:46:47;;;;;;;16.58;6.07;;;14.90;99.90;;;;;;5030338;28;20028;-83
2022/05/21 05:49:13;;;;;;;13.55;5.70;;;14.90;99.90;;;;;;5030517;28;20048;-83
2022/05/21 05:51:38;;;;;;;15.43;6.30;;;14.90;99.90;;;;;;5030221;28;20485;-83
2022/05/21 05:57:25;;;;;;;14.80;6.68;;;14.90;99.90;;;;;;5020256;28;20136;-84
2022/05/21 05:59:51;;;;;;;19.73;9.40;;;14.90;99.90;;;;;;5030725;28;20026;-84
2022/05/21 06:05:07;;;;;;;13.52;6.15;;;14.90;99.90;;;;;;5030874;28;20072;-83
2022/05/21 06:07:33;;;;;;;13.93;5.95;;;14.90;99.90;;;;;;5030295;28;20044;-83
2022/05/21 06:10:08;;;;;;;17.90;8.25;;;15.00;99.90;;;;;;5030206;28;20532;-82
2022/05/21 06:12:43;;;;;;;19.60;8.20;;;15.00;99.90;;;;;;5030494;28;20108;-83
2022/05/21 06:15:11;;;;;;;16.63;6.05;;;15.00;99.90;;;;;;5030347;28;20029;-84
2022/05/21 06:17:38;;;;;;;14.60;5.82;;;15.00;99.90;;;;;;5028577;28;20037;-83
2022/05/21 06:20:07;;;;;;;16.17;5.90;;;15.00;99.90;;;;;;5029992;28;20473;-84
2022/05/21 06:22:33;;;;;;;20.50;6.27;;;15.00;99.90;;;;;;5028830;28;20033;-84
2022/05/21 06:25:03;;;;;;;16.40;6.13;;;15.00;99.90;;;;;;5032162;28;20040;-84
2022/05/21 06:27:33;;;;;;;14.80;5.30;;;15.00;99.90;;;;;;5033762;28;20029;-84
2022/05/21 06:29:58;;;;;;;12.48;5.55;;;15.10;99.90;;;;;;5033526;28;20041;-83
2022/05/21 06:32:24;;;;;;;13.98;5.65;;;15.10;99.90;;;;;;5032579;28;20033;-83
2022/05/21 06:34:50;;;;;;;20.58;6.43;;;15.10;99.90;;;;;;5032711;28;20080;-84
2022/05/21 06:37:16;;;;;;;28.23;7.70;;;15.10;99.90;;;;;;5033556;28;20029;-84
2022/05/21 06:39:42;;;;;;;13.65;5.55;;;15.10;99.90;;;;;;5033472;28;20030;-84
2022/05/21 06:42:09;;;;;;;20.42;5.82;;;15.20;99.90;;;;;;5033643;28;20065;-85
2022/05/21 06:44:34;;;;;;;13.35;5.75;;;15.20;99.90;;;;;;5032253;28;20092;-84
2022/05/21 06:47:00;;;;;;;17.33;6.68;;;15.20;99.90;;;;;;5032351;28;20037;-84
2022/05/21 06:49:26;;;;;;;17.13;6.00;;;15.10;99.90;;;;;;5033834;28;20423;-84
2022/05/21 06:51:54;;;;;;;31.15;7.10;;;15.20;99.90;;;;;;5033316;28;20457;-84
2022/05/21 06:54:20;;;;;;;17.02;6.65;;;15.10;99.90;;;;;;5033441;28;20033;-84
2022/05/21 06:56:46;;;;;;;22.42;7.65;;;15.10;99.90;;;;;;5033378;28;20039;-84
2022/05/21 06:59:12;;;;;;;18.52;7.10;;;15.10;99.90;;;;;;5033097;28;20025;-84
2022/05/21 07:01:39;;;;;;;17.90;6.63;;;15.20;99.90;;;;;;5032156;28;20473;-84
2022/05/21 07:04:07;;;;;;;18.67;6.65;;;15.20;99.90;;;;;;5033385;28;20056;-85
2022/05/21 07:09:18;;;;;;;41.40;8.00;;;15.10;99.90;;;;;;5031790;28;20315;-84
2022/05/21 07:11:44;;;;;;;17.02;9.60;;;15.20;99.90;;;;;;5032747;28;20063;-84
2022/05/21 07:14:10;;;;;;;20.80;8.18;;;15.20;99.90;;;;;;5033222;28;20087;-84
2022/05/21 07:16:35;;;;;;;17.75;7.10;;;15.20;99.90;;;;;;5032732;28;20497;-84
2022/05/21 07:19:01;;;;;;;15.90;6.75;;;15.10;99.90;;;;;;5032618;28;20071;-84
2022/05/21 07:21:28;;;;;;;18.40;6.97;;;15.10;99.90;;;;;;5032715;28;20030;-84
2022/05/21 07:23:54;;;;;;;20.17;6.38;;;15.20;99.90;;;;;;5032769;28;20037;-84
2022/05/21 07:26:20;;;;;;;14.75;6.95;;;15.10;99.90;;;;;;5031378;28;20125;-84
2022/05/21 07:28:46;;;;;;;15.63;7.05;;;15.20;99.90;;;;;;5032957;28;20029;-84
2022/05/21 07:31:13;;;;;;;17.67;8.02;;;15.20;99.90;;;;;;5031305;28;20029;-84
2022/05/21 07:33:38;;;;;;;17.05;7.13;;;15.20;99.90;;;;;;5031456;28;20033;-84
2022/05/21 07:36:04;;;;;;;22.27;7.90;;;15.20;99.90;;;;;;5030437;28;20461;-84
2022/05/21 07:38:30;;;;;;;21.15;7.88;;;15.30;99.90;;;;;;5032430;28;20029;-84
2022/05/21 07:40:56;;;;;;;17.30;7.78;;;15.30;99.90;;;;;;5030941;28;20022;-84
2022/05/21 07:43:27;;;;;;;20.00;7.28;;;15.30;99.90;;;;;;5032482;28;20389;-84
2022/05/21 07:45:54;;;;;;;15.55;7.60;;;15.30;99.90;;;;;;5032184;28;20025;-84
2022/05/21 07:48:21;;;;;;;25.52;8.55;;;15.30;99.90;;;;;;5031070;28;20033;-84
2022/05/21 07:51:00;;;;;;;24.88;7.78;;;15.30;99.90;;;;;;5014385;28;20511;-84
2022/05/21 07:53:33;;;;;;;17.58;7.32;;;15.30;99.90;;;;;;5032285;28;20037;-84
2022/05/21 07:55:59;;;;;;;24.52;8.85;;;15.30;99.90;;;;;;5032573;28;20044;-84
2022/05/21 07:58:27;;;;;;;21.70;8.40;;;15.30;99.90;;;;;;5032277;28;20033;-85
2022/05/21 08:00:55;;;;;;;17.58;7.95;;;15.30;99.90;;;;;;5032057;28;20049;-85
2022/05/21 08:03:24;;;;;;;35.03;10.43;;;15.30;99.90;;;;;;5014609;28;20057;-85
2022/05/21 08:05:50;;;;;;;22.63;8.15;;;15.30;99.90;;;;;;5030419;28;20412;-84
2022/05/21 08:08:16;;;;;;;19.20;7.93;;;15.30;99.90;;;;;;5014512;28;20448;-84
2022/05/21 08:10:45;;;;;;;18.08;7.93;;;15.30;99.90;;;;;;5030315;28;20029;-84
2022/05/21 08:13:12;;;;;;;25.13;8.80;;;15.30;99.90;;;;;;5014178;28;20158;-84
2022/05/21 08:15:38;;;;;;;21.38;8.77;;;15.40;99.90;;;;;;5030593;28;20044;-84
2022/05/21 08:18:05;;;;;;;24.70;8.90;;;15.40;99.90;;;;;;5030659;28;20309;-84
2022/05/21 08:20:32;;;;;;;14.55;8.20;;;15.40;99.90;;;;;;5030126;28;20031;-84
2022/05/21 08:28:26;;;;;;;19.45;8.15;;;15.40;99.90;;;;;;5031671;28;20033;-84
2022/05/21 08:30:52;;;;;;;20.65;10.23;;;15.50;99.90;;;;;;5031166;28;20036;-84
2022/05/21 08:33:22;;;;;;;20.85;8.82;;;15.50;99.90;;;;;;5031782;28;20548;-84
2022/05/21 08:35:48;;;;;;;20.00;9.15;;;15.60;99.90;;;;;;5013756;28;20477;-84
2022/05/21 08:38:15;;;;;;;22.23;8.50;;;15.60;99.90;;;;;;5030166;28;20046;-84
2022/05/21 08:40:51;;;;;;;24.80;8.48;;;15.70;99.90;;;;;;5029892;28;20471;-84
2022/05/21 08:43:44;;;;;;;20.15;8.30;;;15.80;99.90;;;;;;5030145;28;20030;-84
2022/05/21 08:46:33;;;;;;;23.30;8.35;;;15.90;99.90;;;;;;5014663;28;20045;-84
2022/05/21 08:49:03;;;;;;;19.70;8.43;;;15.80;99.90;;;;;;5013448;28;20452;-84
2022/05/21 08:51:55;;;;;;;26.38;10.52;;;15.80;99.90;;;;;;5029857;28;20029;-84
2022/05/21 08:54:26;;;;;;;26.20;8.38;;;15.90;99.90;;;;;;5003803;28;20033;-84
2022/05/21 08:56:55;;;;;;;17.73;7.80;;;15.90;99.90;;;;;;5031965;28;20029;-84
2022/05/21 08:59:24;;;;;;;;;;;15.90;99.90;;;;;;5030035;28;20117;-84
2022/05/21 09:01:51;;;;;;;28.90;8.90;;;16.00;99.90;;;;;;5030984;28;19955;-84
2022/05/21 09:04:16;;;;;;;16.90;7.45;;;16.00;99.90;;;;;;5029577;28;20040;-84
2022/05/21 09:06:55;;;;;;;22.20;7.30;;;16.00;99.90;;;;;;5029815;28;20397;-84
2022/05/21 09:10:03;;;;;;;20.20;8.25;;;16.10;99.90;;;;;;5029458;28;20042;-84
2022/05/21 09:13:09;;;;;;;21.13;7.68;;;16.10;99.90;;;;;;5007564;28;20702;-84
2022/05/21 09:18:23;;;;;;;16.70;7.07;;;16.10;99.90;;;;;;5031000;28;20033;-84
2022/05/21 09:21:02;;;;;;;14.85;7.47;;;16.10;99.90;;;;;;5029149;28;20064;-84
2022/05/21 09:23:59;;;;;;;22.35;7.50;;;16.10;99.90;;;;;;5029873;28;20109;-83
2022/05/21 09:26:30;;;;;;;19.77;7.38;;;16.00;99.90;;;;;;5021978;28;20037;-84
2022/05/21 09:29:18;;;;;;;20.23;7.65;;;16.00;99.90;;;;;;5029371;28;20030;-84
2022/05/21 09:31:44;;;;;;;16.25;7.45;;;16.00;99.90;;;;;;5013049;28;20112;-84
2022/05/21 09:34:29;;;;;;;19.30;8.00;;;16.00;99.90;;;;;;5029580;28;20585;-84
2022/05/21 09:36:56;;;;;;;18.80;8.20;;;16.00;99.90;;;;;;5012959;28;20026;-84
2022/05/21 09:39:41;;;;;;;27.80;8.65;;;16.10;99.90;;;;;;5029197;28;20052;-84
2022/05/21 09:45:22;;;;;;;17.65;6.93;;;16.20;99.90;;;;;;5030565;28;20400;-84
2022/05/21 09:45:22;;;;;;;17.13;8.00;;;16.20;99.90;;;;;;5029472;28;20039;-84
2022/05/21 09:47:49;;;;;;;15.48;7.07;;;16.30;99.90;;;;;;5029355;28;20179;-84
2022/05/21 09:50:23;;;;;;;39.72;10.70;;;16.40;99.90;;;;;;5029214;28;20492;-84
2022/05/21 09:52:51;;;;;;;22.80;8.02;;;16.40;99.90;;;;;;5029186;28;20065;-84
2022/05/21 09:55:26;;;;;;;23.10;7.88;;;16.50;99.90;;;;;;5012877;28;20036;-84
2022/05/21 09:57:52;;;;;;;16.25;6.90;;;16.60;99.90;;;;;;5029237;28;20030;-84
2022/05/21 10:00:34;;;;;;;18.77;7.65;;;16.60;99.90;;;;;;5034573;28;20091;-84
2022/05/21 10:03:07;;;;;;;14.05;6.47;;;16.60;99.90;;;;;;5033097;28;20129;-84
2022/05/21 10:05:46;;;;;;;16.38;6.50;;;16.60;99.90;;;;;;5033188;28;20188;-84
2022/05/21 10:11:35;;;;;;;12.80;6.18;;;16.80;99.90;;;;;;5032889;28;20033;-84
2022/05/21 10:14:05;;;;;;;13.77;6.15;;;17.00;99.90;;;;;;5033128;28;20033;-84
2022/05/21 10:16:37;;;;;;;19.85;7.40;;;17.00;99.90;;;;;;5016450;28;20056;-84
2022/05/21 10:19:09;;;;;;;20.42;7.03;;;17.10;99.90;;;;;;5032736;28;20021;-84
2022/05/21 10:21:49;;;;;;;17.05;6.10;;;17.20;99.90;;;;;;5033111;28;20034;-84
2022/05/21 10:24:44;;;;;;;33.97;7.93;;;17.30;99.90;;;;;;5034147;28;20478;-84
2022/05/21 10:27:13;;;;;;;17.08;6.43;;;17.30;99.90;;;;;;5032768;28;20438;-84
2022/05/21 10:30:15;;;;;;;18.23;6.85;;;17.40;99.90;;;;;;5033781;28;20037;-84
2022/05/21 10:33:16;;;;;;;14.65;5.80;;;17.40;99.90;;;;;;5032868;28;20128;-84
2022/05/21 10:35:48;;;;;;;13.85;6.10;;;17.50;99.90;;;;;;5031509;28;20104;-84
2022/05/21 10:38:44;;;;;;;12.32;5.90;;;17.50;99.90;;;;;;5032716;28;20025;-84
2022/05/21 10:44:00;;;;;;;10.55;4.63;;;17.80;99.90;;;;;;5031714;28;19921;-67
2022/05/21 10:46:36;;;;;;;12.80;5.72;;;17.80;99.70;;;;;;5033475;28;20040;-67
2022/05/21 10:49:54;;;;;;;10.88;5.72;;;17.80;98.90;;;;;;5033446;28;20037;-67
2022/05/21 10:52:37;;;;;;;11.23;5.00;;;17.80;98.80;;;;;;5011176;28;20473;-67
2022/05/21 10:55:16;;;;;;;23.30;6.07;;;17.80;99.00;;;;;;5033514;28;20268;-67
2022/05/21 10:58:00;;;;;;;;;;;17.90;98.30;;;;;;5033687;28;20222;-67
2022/05/21 11:00:29;;;;;;;15.23;5.68;;;17.90;97.70;;;;;;5033289;28;19916;-67
2022/05/21 11:02:55;;;;;;;;;;;18.00;97.60;;;;;;5033874;28;20108;-68
2022/05/21 11:05:58;;;;;;;11.77;4.93;;;18.00;97.80;;;;;;5033379;28;20001;-67
2022/05/21 11:08:55;;;;;;;11.63;4.38;;;18.00;97.60;;;;;;5033153;28;20033;-67
2022/05/21 11:11:53;;;;;;;11.60;4.65;;;18.10;98.10;;;;;;5033228;28;20108;-67
2022/05/21 11:14:25;;;;;;;15.95;4.88;;;18.10;97.70;;;;;;5029899;28;20041;-67
2022/05/21 11:17:27;;;;;;;12.40;5.15;;;18.10;98.20;;;;;;5032837;28;20021;-67
2022/05/21 11:20:03;;;;;;;13.13;4.93;;;18.10;98.40;;;;;;5032877;28;20036;-67
2022/05/21 11:22:52;;;;;;;14.68;4.30;;;18.10;98.30;;;;;;5031933;28;20390;-67
2022/05/21 11:25:23;;;;;;;15.45;4.57;;;18.10;98.20;;;;;;5032927;28;20033;-67
2022/05/21 11:28:18;;;;;;;14.25;4.80;;;18.10;98.70;;;;;;5032747;28;20079;-67
2022/05/21 11:30:45;;;;;;;12.95;5.35;;;18.10;97.50;;;;;;5022326;28;20592;-67
2022/05/21 11:39:16;;;;;;;12.13;5.05;;;17.90;97.60;;;;;;5032391;28;20021;-68
2022/05/21 11:42:23;;;;;;;16.52;5.70;;;17.80;97.80;;;;;;5032453;28;20033;-66
2022/05/21 11:45:10;;;;;;;13.80;4.95;;;17.80;98.20;;;;;;5032562;28;20029;-67
2022/05/21 11:47:49;;;;;;;12.00;5.60;;;17.80;98.30;;;;;;5032330;28;20040;-66
2022/05/21 11:50:21;;;;;;;14.93;4.68;;;17.90;98.40;;;;;;5032263;28;20124;-68
2022/05/21 11:52:57;;;;;;;11.00;4.22;;;17.90;98.10;;;;;;5032590;28;20033;-67
2022/05/21 11:55:27;;;;;;;19.20;4.43;;;17.90;97.30;;;;;;5032358;28;20054;-67
2022/05/21 11:58:19;;;;;;;15.18;4.80;;;17.90;97.20;;;;;;5032176;28;20029;-66
2022/05/21 12:00:46;;;;;;;14.65;5.43;;;17.90;97.10;;;;;;5031546;28;20049;-67
2022/05/21 12:03:14;;;;;;;13.60;5.30;;;17.90;96.80;;;;;;5032273;28;20402;-67
2022/05/21 12:05:53;;;;;;;14.73;5.07;;;17.90;97.00;;;;;;5032092;28;20036;-68
2022/05/21 12:08:22;;;;;;;12.23;4.78;;;18.00;97.20;;;;;;5032126;28;20040;-68
2022/05/21 12:10:51;;;;;;;;;;;18.00;97.30;;;;;;5032262;28;20119;-67
2022/05/21 12:13:21;;;;;;;9.75;5.00;;;17.90;97.40;;;;;;5031915;28;19913;-67
2022/05/21 12:15:52;;;;;;;13.05;5.57;;;17.90;97.70;;;;;;5031981;28;20022;-66
2022/05/21 12:18:30;;;;;;;14.32;6.32;;;17.80;97.70;;;;;;5031749;28;20476;-66
2022/05/21 12:20:56;;;;;;;10.75;5.38;;;17.80;97.60;;;;;;5031485;28;20025;-66
2022/05/21 12:23:32;;;;;;;10.02;4.82;;;17.90;97.20;;;;;;5031758;28;20043;-66
2022/05/21 12:26:00;;;;;;;10.70;4.75;;;17.90;97.20;;;;;;5031569;28;20029;-66
2022/05/21 12:28:35;;;;;;;10.20;4.70;;;17.90;97.10;;;;;;5031823;28;20037;-66
2022/05/21 12:31:05;;;;;;;10.75;4.53;;;17.90;97.00;;;;;;5032180;28;20025;-67
2022/05/21 12:34:06;;;;;;;10.35;4.57;;;18.00;96.90;;;;;;5031544;28;20033;-67
2022/05/21 12:36:51;;;;;;;13.05;5.18;;;18.10;96.90;;;;;;5031488;28;20061;-67
2022/05/21 12:39:24;;;;;;;10.93;4.30;;;18.20;96.70;;;;;;5031733;28;20100;-67
2022/05/21 12:41:54;;;;;;;9.27;4.60;;;18.30;96.60;;;;;;5031403;28;20045;-67
2022/05/21 12:44:43;;;;;;;9.45;4.05;;;18.40;96.60;;;;;;5031395;28;20033;-67
2022/05/21 12:47:12;;;;;;;13.50;5.40;;;18.40;96.20;;;;;;5031259;28;20113;-67
2022/05/21 12:49:50;;;;;;;16.00;4.75;;;18.40;96.10;;;;;;5031157;28;20101;-67
2022/05/21 12:52:32;;;;;;;10.40;4.88;;;18.40;95.60;;;;;;5030354;28;20112;-67
2022/05/21 12:55:28;;;;;;;9.23;4.63;;;18.50;95.40;;;;;;5032316;28;20033;-66
2022/05/21 12:58:17;;;;;;;11.43;4.47;;;18.40;95.40;;;;;;5031657;28;20045;-66
2022/05/21 13:00:52;;;;;;;10.88;4.60;;;18.40;95.30;;;;;;5030837;28;20073;-66
2022/05/21 13:03:20;;;;;;;11.55;4.10;;;18.40;95.20;;;;;;5031274;28;20413;-67
2022/05/21 13:05:54;;;;;;;11.52;5.13;;;18.30;95.00;;;;;;5030961;28;20039;-67
2022/05/21 13:08:22;;;;;;;11.45;4.53;;;18.30;95.50;;;;;;5031008;28;20033;-67
2022/05/21 13:11:01;;;;;;;11.48;4.95;;;18.30;95.70;;;;;;5031066;28;20083;-67
2022/05/21 13:13:35;;;;;;;12.40;5.20;;;18.40;95.50;;;;;;5031071;28;20072;-66
2022/05/21 13:16:06;;;;;;;12.73;4.75;;;18.40;95.30;;;;;;5030870;28;20033;-66
2022/05/21 13:18:53;;;;;;;11.57;4.97;;;18.50;95.20;;;;;;5029418;28;20029;-66
2022/05/21 13:21:41;;;;;;;11.95;4.43;;;18.50;95.70;;;;;;5030858;28;20025;-65
2022/05/21 13:24:13;;;;;;;13.70;5.10;;;18.70;95.40;;;;;;5030942;28;20426;-66
2022/05/21 13:26:39;;;;;;;10.57;4.03;;;18.70;95.50;;;;;;5030951;28;20104;-66
2022/05/21 13:29:21;;;;;;;10.20;4.38;;;18.80;95.30;;;;;;5030696;28;20029;-66
2022/05/21 13:31:52;;;;;;;13.55;4.47;;;18.90;95.30;;;;;;5030742;28;20048;-66
2022/05/21 13:34:34;;;;;;;11.90;4.38;;;19.00;94.50;;;;;;5033156;28;20051;-66